Aérodrome :
LOGIN :

S'inscrire | Disclaimer

   EN    FR    IT 

 










Légende :    VFR   VFR Marginal   IFR   IFR Intensif   IFR Très Intensif
Visi : 
Plafond : 
>= 8 km
>= 3000ft
5 à 8 km
1000 à 3000 ft
1500m à 5 km
500 à 1000 ft
800 à 1500m
200 à 500 ft
< 800m
< 200 ft
Symboles :   Orages  Brouillard  Fortes neiges  Fortes précipitations  Vent > 20 kt
SIGMETs :   Divers  Orages  Givrage  Turbulence  Onde Orograph.  Cendres Volcan.






- Altitude de l'aérodrome : 359 ft
- Code IATA : BVA


LFOB - Beauvais

DERNIER METAR :
  • 032000Z AUTO 34004KT CAVOK 15/14 Q1002 TEMPO 36020G30KT 3000 TSRA BKN030CB

METARs EXPIRÉS :
  • 031930Z AUTO 35002KT CAVOK 16/13 Q1002 TEMPO 36020G30KT 3000 TSRA BKN030CB
  • 031900Z AUTO 00000KT CAVOK 16/13 Q1002 TEMPO 36020G30KT 3000 TSRA BKN030CB
  • 031830Z AUTO 02005KT 360V060 9999 FEW024/// ///TCU 16/13 Q1002 TEMPO 36020G30KT 3000 TSRA BKN030CB
  • 031800Z AUTO 04011KT 7000 -RA FEW028/// SCT060/// BKN070/// ///CB 16/14 Q1002 TEMPO 36020G30KT 3000 TSRA
  • 031730Z AUTO 34011KT 3900 RA BR VCTS ///CB 16/13 Q1003 TEMPO 36020G30KT

TAF TAF LFOB
Valide du 03 à 18h jusqu'au 04 à 18h UTC


031700Z 0318/0418 36012KT 9999 SCT030
PROB40
TEMPO 0318/0323 36020G30KT 3000 TSRA BKN030CB
PROB30
TEMPO 0410/0415 36015G25KT 4000 SHRA BKN030TCU
BECMG 0416/0418 30012KT
ATIS : +33 3 44 11 49 28



MET'MAP, la Météo Aéronautique d'un coup d'oeil ! - Copyright ORBIFLY Décembre 2007 - Disclaimer

ORBIFLY MET'MAP TEAM :

Programmation & Développement : Alexandra Zaïnal
Sur une idée originale de : Baudouin d'Aumeries
Assistance à la programmation : Marc-Olivier Méhu
Soutien technique & logistique : Manuel Goepfert

Contact : metmap@orbifly.com




SOURCES & CREDITS :

   NOAA